Time;durP1;ratioP1;P1;durP2;ratioP2;P2;SDS_P1;SDS_P2;PMS_P1;PMS_P2;Temp;Humidity;BMP_temperature;BMP_pressure;BME280_temperature;BME280_humidity;BME280_pressure;Samples;Min_cycle;Max_cycle;Signal;HPM_P1;HPM_P2
2023/05/26 00:02:13;;;;;;;1.60;1.50;;;;;;;15.41;76.15;99944.81;5075910;28;20052;-64
2023/05/26 00:04:43;;;;;;;7.43;2.38;;;;;;;15.30;76.43;99936.44;5076108;28;20502;-64
2023/05/26 00:07:12;;;;;;;2.70;2.08;;;;;;;15.21;76.55;99936.56;5075789;28;20041;-64
2023/05/26 00:09:42;;;;;;;2.73;1.87;;;;;;;15.18;76.85;99941.75;5075872;28;20054;-63
2023/05/26 00:12:11;;;;;;;1.52;0.88;;;;;;;15.16;76.77;99938.38;5058237;28;20045;-64
2023/05/26 00:14:39;;;;;;;1.23;1.13;;;;;;;15.15;77.13;99940.09;5057864;28;20045;-64
2023/05/26 00:17:08;;;;;;;4.03;2.13;;;;;;;15.18;76.84;99937.47;5075915;28;20360;-64
2023/05/26 00:19:37;;;;;;;1.25;1.15;;;;;;;15.16;76.92;99943.50;5076204;28;20036;-63
2023/05/26 00:22:06;;;;;;;2.30;1.77;;;;;;;15.10;77.42;99943.59;5076346;28;20041;-63
2023/05/26 00:24:35;;;;;;;2.10;1.50;;;;;;;15.11;77.07;99945.28;5075217;28;20098;-64
2023/05/26 00:27:06;;;;;;;1.20;1.10;;;;;;;15.09;77.12;99947.03;5075881;28;20048;-63
2023/05/26 00:29:37;;;;;;;3.47;2.00;;;;;;;15.10;77.30;99943.59;5057771;28;20429;-65
2023/05/26 00:32:06;;;;;;;1.70;1.60;;;;;;;15.02;77.58;99942.88;5057523;28;20041;-62
2023/05/26 00:34:35;;;;;;;;;;;;;;;15.00;77.60;99932.59;5057856;28;20127;-63
2023/05/26 00:37:05;;;;;;;1.42;1.33;;;;;;;15.02;77.94;99935.16;5075247;28;19970;-62
2023/05/26 00:39:35;;;;;;;1.40;1.30;;;;;;;15.01;77.42;99925.72;5057723;28;20044;-62
2023/05/26 00:42:06;;;;;;;;;;;;;;;15.03;77.81;99939.41;5075885;28;20079;-62
2023/05/26 00:44:34;;;;;;;5.47;2.60;;;;;;;14.98;77.92;99938.63;5057224;28;19927;-63
2023/05/26 00:47:03;;;;;;;1.77;1.67;;;;;;;15.01;77.72;99941.16;5057183;28;20063;-64
2023/05/26 00:49:32;;;;;;;1.90;1.33;;;;;;;15.02;77.42;99937.72;5075149;28;20032;-63
2023/05/26 00:52:02;;;;;;;2.08;1.85;;;;;;;15.05;77.36;99945.38;5074871;28;20036;-64
2023/05/26 00:54:31;;;;;;;1.15;0.95;;;;;;;15.01;77.61;99934.28;5074883;28;20525;-64
2023/05/26 00:57:00;;;;;;;1.80;1.50;;;;;;;14.97;77.57;99936.94;5057086;28;20232;-64
2023/05/26 00:59:32;;;;;;;1.50;1.40;;;;;;;14.99;77.96;99936.03;5074761;28;20045;-63
2023/05/26 01:02:02;;;;;;;4.22;2.28;;;;;;;15.04;77.52;99939.41;5075086;28;20044;-63
2023/05/26 01:04:32;;;;;;;2.30;1.98;;;;;;;15.03;77.60;99936.84;5091054;28;20051;-63
2023/05/26 01:07:01;;;;;;;3.30;2.63;;;;;;;14.98;77.88;99944.63;5074679;28;20041;-62
2023/05/26 01:09:30;;;;;;;4.15;1.75;;;;;;;14.96;78.00;99940.38;5074634;28;20059;-63
2023/05/26 01:12:08;;;;;;;4.22;1.73;;;;;;;14.96;77.51;99924.94;5074796;28;20050;-63
2023/05/26 01:14:47;;;;;;;5.68;3.42;;;;;;;14.84;77.93;99935.41;5074925;28;20044;-63
2023/05/26 01:17:18;;;;;;;;;;;;;;;14.75;77.70;99937.25;5074876;28;20102;-63
2023/05/26 01:20:19;;;;;;;1.55;1.45;;;;;;;14.71;78.36;99930.44;5074707;28;19920;-62
2023/05/26 01:23:07;;;;;;;1.63;1.35;;;;;;;14.78;78.49;99932.03;5071496;28;20120;-62
2023/05/26 01:25:51;;;;;;;0.90;0.88;;;;;;;14.76;78.53;99932.94;5074227;28;20059;-63
2023/05/26 01:28:23;;;;;;;2.75;1.73;;;;;;;14.76;78.14;99931.22;5056753;28;20052;-62
2023/05/26 01:30:54;;;;;;;3.22;2.22;;;;;;;14.78;78.20;99926.91;5056438;28;20045;-62
2023/05/26 01:33:23;;;;;;;1.20;1.10;;;;;;;14.75;78.63;99926.09;5056402;28;20111;-62
2023/05/26 01:35:53;;;;;;;2.95;2.20;;;;;;;14.75;78.17;99934.69;5074017;28;20127;-63
2023/05/26 01:38:22;;;;;;;2.75;1.58;;;;;;;14.65;78.29;99915.09;5056362;28;20044;-63
2023/05/26 01:40:58;;;;;;;2.20;2.00;;;;;;;14.68;78.78;99920.19;5074338;28;20394;-63
2023/05/26 01:43:35;;;;;;;2.28;1.80;;;;;;;14.71;78.53;99925.28;5056208;28;20048;-63
2023/05/26 01:46:09;;;;;;;2.20;1.77;;;;;;;14.72;78.42;99921.00;5074150;28;20056;-63
2023/05/26 01:48:43;;;;;;;1.60;1.15;;;;;;;14.68;78.57;99920.19;5056437;28;20117;-63
2023/05/26 01:51:17;;;;;;;1.70;1.60;;;;;;;14.73;78.89;99922.72;5056385;28;20041;-63
2023/05/26 01:53:50;;;;;;;1.40;1.23;;;;;;;14.71;78.85;99920.16;5055978;28;20127;-64
2023/05/26 01:56:20;;;;;;;1.52;1.38;;;;;;;14.70;78.82;99922.75;5073764;28;20076;-63
2023/05/26 01:58:53;;;;;;;6.90;1.77;;;;;;;14.66;78.75;99916.78;5074213;28;20498;-63
2023/05/26 02:01:26;;;;;;;1.48;1.38;;;;;;;14.68;78.96;99919.34;5056540;28;20062;-62
2023/05/26 02:03:56;;;;;;;2.47;1.55;;;;;;;14.68;78.52;99914.22;5056166;28;20547;-63
2023/05/26 02:06:26;;;;;;;2.10;1.58;;;;;;;14.61;79.11;99913.44;5073848;28;20032;-63
2023/05/26 02:08:56;;;;;;;3.13;1.90;;;;;;;14.56;78.95;99915.25;5055765;28;20044;-63
2023/05/26 02:11:25;;;;;;;4.60;1.77;;;;;;;14.53;79.19;99915.28;5073594;28;20123;-62
2023/05/26 02:13:56;;;;;;;2.60;2.30;;;;;;;14.54;79.07;99913.56;5073464;28;20044;-62
2023/05/26 02:16:26;;;;;;;1.63;1.33;;;;;;;14.57;79.60;99922.06;5089206;28;20048;-63
2023/05/26 02:18:56;;;;;;;3.97;2.60;;;;;;;14.61;79.22;99913.44;5073776;28;20079;-63
2023/05/26 02:21:26;;;;;;;1.65;1.52;;;;;;;14.67;79.21;99908.22;5073846;28;20398;-64
2023/05/26 02:23:56;;;;;;;1.25;1.15;;;;;;;14.68;79.00;99909.91;5073471;28;20045;-63
2023/05/26 02:26:25;;;;;;;1.50;1.23;;;;;;;14.70;78.87;99913.31;5055511;28;20052;-63
2023/05/26 02:28:56;;;;;;;1.50;1.33;;;;;;;14.64;79.25;99908.25;5073319;28;20068;-63
2023/05/26 02:31:25;;;;;;;1.52;1.42;;;;;;;14.66;79.24;99915.97;5055853;28;20049;-64
2023/05/26 02:33:55;;;;;;;1.13;1.02;;;;;;;14.61;79.61;99913.44;5055924;28;20486;-64
2023/05/26 02:36:25;;;;;;;1.23;1.13;;;;;;;14.61;79.34;99913.44;5073523;28;20041;-62
2023/05/26 02:38:53;;;;;;;1.52;1.42;;;;;;;14.64;79.23;99913.41;5055354;28;20060;-63
2023/05/26 02:41:23;;;;;;;1.25;1.15;;;;;;;14.65;79.45;99911.69;5073282;28;20109;-64
2023/05/26 02:43:52;;;;;;;1.50;1.40;;;;;;;14.65;79.16;99909.97;5055415;28;20037;-63
2023/05/26 02:46:26;;;;;;;2.83;2.38;;;;;;;14.70;79.40;99912.47;5055721;28;20048;-63
2023/05/26 02:48:55;;;;;;;3.78;1.08;;;;;;;14.73;79.59;99908.13;5073279;28;20044;-63
2023/05/26 02:51:25;;;;;;;3.08;1.90;;;;;;;14.74;79.16;99908.97;5073159;28;20040;-63
2023/05/26 02:53:55;;;;;;;1.70;1.60;;;;;;;14.70;78.96;99910.75;5037902;28;20044;-63
2023/05/26 02:56:24;;;;;;;2.47;1.97;;;;;;;14.65;79.78;99915.09;5073519;28;20051;-62
2023/05/26 02:58:53;;;;;;;1.70;1.60;;;;;;;14.62;79.53;99915.13;5055461;28;20486;-63
2023/05/26 03:01:24;;;;;;;1.03;0.80;;;;;;;14.61;79.34;99913.44;5055313;28;20052;-63
2023/05/26 03:03:55;;;;;;;2.85;1.50;;;;;;;14.58;79.87;99918.63;5073068;28;20103;-63
2023/05/26 03:06:24;;;;;;;1.55;1.42;;;;;;;14.56;79.92;99919.53;5055323;28;20048;-62
2023/05/26 03:08:53;;;;;;;1.33;1.20;;;;;;;14.50;79.69;99915.31;5058719;28;20117;-63
2023/05/26 03:11:22;;;;;;;0.97;0.90;;;;;;;14.53;80.00;99925.53;5059266;28;20440;-63
2023/05/26 03:13:51;;;;;;;3.90;1.63;;;;;;;14.55;80.30;99918.66;5058886;28;20055;-63
2023/05/26 03:16:20;;;;;;;1.87;1.50;;;;;;;14.58;80.18;99918.63;5059243;28;20391;-63
2023/05/26 03:18:49;;;;;;;1.17;1.08;;;;;;;14.57;80.04;99916.06;5058882;28;20041;-63
2023/05/26 03:21:19;;;;;;;2.30;1.23;;;;;;;14.58;79.92;99922.91;5076668;28;20071;-62
2023/05/26 03:24:08;;;;;;;2.08;1.88;;;;;;;14.62;79.99;99916.84;5059129;28;20398;-62
2023/05/26 03:26:38;;;;;;;2.53;2.05;;;;;;;14.57;80.08;99913.50;5058597;28;20052;-64
2023/05/26 03:29:07;;;;;;;1.90;1.65;;;;;;;14.60;79.99;99918.59;5059095;28;20038;-63
2023/05/26 03:31:37;;;;;;;3.22;1.67;;;;;;;14.60;80.04;99916.88;5076464;28;20056;-64
2023/05/26 03:34:07;;;;;;;1.38;1.13;;;;;;;14.68;79.92;99915.03;5076837;28;20048;-63
2023/05/26 03:36:38;;;;;;;6.95;1.13;;;;;;;14.77;79.54;99926.94;5058862;28;20032;-63
2023/05/26 03:39:23;;;;;;;2.13;1.55;;;;;;;14.84;79.70;99914.84;5076557;28;20045;-63
2023/05/26 03:41:55;;;;;;;1.42;1.23;;;;;;;14.91;78.98;99917.31;5076453;28;20056;-62
2023/05/26 03:44:26;;;;;;;3.28;2.00;;;;;;;14.94;78.69;99916.41;5076283;28;20101;-63
2023/05/26 03:46:55;;;;;;;2.15;1.98;;;;;;;14.96;78.50;99919.81;5076510;28;20043;-64
2023/05/26 03:49:26;;;;;;;0.52;0.52;;;;;;;14.99;78.54;99922.34;5076189;28;20131;-63
2023/05/26 03:51:57;;;;;;;2.35;1.83;;;;;;;14.97;78.84;99921.50;5076172;28;20068;-63
2023/05/26 03:54:26;;;;;;;3.08;1.40;;;;;;;14.99;78.46;99928.34;5041930;28;20090;-62
2023/05/26 03:56:55;;;;;;;1.58;1.48;;;;;;;15.01;78.43;99918.03;5076030;28;20052;-63
2023/05/26 03:59:24;;;;;;;4.22;2.05;;;;;;;15.05;78.37;99914.53;5075884;28;20049;-63
2023/05/26 04:01:54;;;;;;;1.13;1.00;;;;;;;15.04;78.30;99917.97;5076232;28;20043;-63
2023/05/26 04:04:23;;;;;;;1.80;1.67;;;;;;;15.14;78.21;99922.13;5076042;28;20049;-64
2023/05/26 04:06:53;;;;;;;1.37;1.27;;;;;;;15.17;77.96;99929.75;5058104;28;20051;-64
2023/05/26 04:09:23;;;;;;;3.40;2.25;;;;;;;15.14;78.35;99929.84;5076370;28;20282;-63
2023/05/26 04:11:52;;;;;;;3.20;1.40;;;;;;;15.12;77.98;99922.13;5057832;28;20041;-64
2023/05/26 04:14:21;;;;;;;1.73;1.42;;;;;;;15.14;78.09;99932.41;5057790;28;20051;-63
2023/05/26 04:16:50;;;;;;;3.97;2.03;;;;;;;15.16;78.29;99935.78;5075912;28;20421;-64
2023/05/26 04:19:19;;;;;;;3.10;2.67;;;;;;;15.10;78.27;99933.31;5057716;28;20044;-64
2023/05/26 04:21:50;;;;;;;1.73;1.08;;;;;;;15.17;77.97;99934.91;5076123;28;20139;-63
2023/05/26 04:24:20;;;;;;;2.13;1.15;;;;;;;15.23;78.46;99942.53;5058180;28;20041;-63
2023/05/26 04:26:52;;;;;;;2.15;1.83;;;;;;;15.23;77.88;99929.69;5057542;28;20065;-64
2023/05/26 04:29:32;;;;;;;1.77;1.63;;;;;;;15.29;77.91;99945.00;5075468;28;20053;-63
2023/05/26 04:32:24;;;;;;;1.67;0.88;;;;;;;15.27;78.13;99936.47;5069715;28;20057;-64
2023/05/26 04:35:20;;;;;;;4.53;1.05;;;;;;;15.27;77.90;99937.31;5071672;28;20045;-62
2023/05/26 04:37:53;;;;;;;2.42;1.05;;;;;;;15.33;78.19;99933.81;5075319;28;20098;-63
2023/05/26 04:40:23;;;;;;;1.63;1.52;;;;;;;15.36;77.82;99936.31;5075597;28;20052;-63
2023/05/26 04:42:57;;;;;;;2.25;1.50;;;;;;;15.38;77.88;99939.72;5075289;28;20082;-65
2023/05/26 04:45:27;;;;;;;0.60;0.60;;;;;;;15.34;77.93;99940.63;5057279;28;20045;-64
2023/05/26 04:47:59;;;;;;;3.08;2.28;;;;;;;15.35;77.71;99950.06;5057408;28;20056;-64
2023/05/26 04:50:28;;;;;;;2.65;2.20;;;;;;;15.36;77.67;99946.59;5057182;28;20049;-64
2023/05/26 04:52:58;;;;;;;1.77;1.33;;;;;;;15.37;77.74;99943.16;5074881;28;20052;-63
2023/05/26 04:55:28;;;;;;;2.13;1.92;;;;;;;15.40;77.77;99938.81;5090565;28;20040;-64
2023/05/26 04:57:58;;;;;;;3.22;2.33;;;;;;;15.48;78.04;99936.16;5075006;28;20074;-63
2023/05/26 05:00:31;;;;;;;1.55;1.27;;;;;;;15.53;78.00;99939.50;5057252;28;20402;-63
2023/05/26 05:03:17;;;;;;;3.05;1.90;;;;;;;15.56;77.47;99934.31;5074684;28;20055;-64
2023/05/26 05:05:57;;;;;;;3.40;1.38;;;;;;;15.64;77.64;99942.75;5074944;28;20436;-63
2023/05/26 05:08:26;;;;;;;5.20;2.22;;;;;;;15.67;77.66;99947.84;5057121;28;20028;-63
2023/05/26 05:10:54;;;;;;;0.80;0.80;;;;;;;15.71;77.58;99949.50;5074884;28;20048;-64
2023/05/26 05:13:25;;;;;;;2.65;1.95;;;;;;;15.79;77.15;99952.78;5056662;28;20040;-63
2023/05/26 05:15:54;;;;;;;1.55;1.00;;;;;;;15.80;77.00;99954.47;5057070;28;20036;-64
2023/05/26 05:18:23;;;;;;;3.17;1.90;;;;;;;15.83;77.06;99954.44;5056920;28;20051;-63
2023/05/26 05:20:52;;;;;;;2.13;1.92;;;;;;;15.86;76.91;99954.34;5056615;28;20079;-62
2023/05/26 05:23:21;;;;;;;1.95;1.75;;;;;;;15.94;76.88;99952.50;5056805;28;20033;-63
2023/05/26 05:25:50;;;;;;;2.50;1.93;;;;;;;16.00;76.77;99951.56;5056395;28;20048;-64
2023/05/26 05:28:22;;;;;;;16.60;2.15;;;;;;;16.05;77.23;99948.00;5074231;28;20143;-62
2023/05/26 05:31:03;;;;;;;1.70;1.20;;;;;;;16.12;77.01;99951.31;5073830;28;20052;-63
2023/05/26 05:33:33;;;;;;;2.22;1.60;;;;;;;16.21;76.60;99945.13;5056367;28;20052;-63
2023/05/26 05:36:03;;;;;;;1.30;1.10;;;;;;;16.27;76.66;99950.19;5089781;28;20494;-63
2023/05/26 05:38:32;;;;;;;3.17;1.75;;;;;;;16.47;76.36;99943.75;5056242;28;20046;-64
2023/05/26 05:41:00;;;;;;;2.00;1.52;;;;;;;16.66;76.24;99944.25;5073982;28;20047;-65
2023/05/26 05:43:29;;;;;;;3.78;1.85;;;;;;;16.72;75.62;99949.28;5056106;28;20036;-64
2023/05/26 05:45:59;;;;;;;2.05;1.38;;;;;;;16.79;75.52;99945.69;5056199;28;20090;-64
2023/05/26 05:48:42;;;;;;;1.67;1.20;;;;;;;16.92;75.80;99952.25;5073946;28;20048;-63
2023/05/26 05:51:17;;;;;;;4.53;1.50;;;;;;;17.23;75.28;99942.94;5074186;28;20052;-64
2023/05/26 05:53:46;;;;;;;2.43;0.90;;;;;;;17.47;74.73;99941.50;5056229;28;20037;-63
2023/05/26 05:56:16;;;;;;;1.63;1.35;;;;;;;17.63;74.20;99944.59;5073701;28;20328;-63
2023/05/26 05:58:46;;;;;;;1.35;0.88;;;;;;;17.67;73.61;99949.66;5055912;28;20048;-62
2023/05/26 06:01:16;;;;;;;1.85;1.65;;;;;;;17.84;73.09;99951.78;5073740;28;20048;-64
2023/05/26 06:03:47;;;;;;;2.25;2.05;;;;;;;17.93;72.25;99951.53;5089304;28;20043;-64
2023/05/26 06:06:17;;;;;;;2.50;1.15;;;;;;;17.91;71.57;99953.31;5073638;28;20127;-64
2023/05/26 06:08:45;;;;;;;;;;;;;;;17.86;71.17;99955.19;5056059;28;20040;-63
2023/05/26 06:11:14;;;;;;;1.20;1.10;;;;;;;17.98;70.88;99955.72;5055753;28;19921;-64
2023/05/26 06:13:45;;;;;;;1.65;1.55;;;;;;;18.10;70.46;99954.53;5073500;28;20052;-64
2023/05/26 06:16:15;;;;;;;1.13;1.02;;;;;;;18.15;70.33;99947.50;5055641;28;20055;-63
2023/05/26 06:18:44;;;;;;;2.53;2.28;;;;;;;18.35;69.64;99947.81;5055833;28;20048;-65
2023/05/26 06:21:15;;;;;;;1.42;1.33;;;;;;;18.50;68.72;99944.81;5073493;28;20050;-64
2023/05/26 06:23:48;;;;;;;2.25;1.58;;;;;;;18.59;68.20;99943.72;5055598;28;20049;-64
2023/05/26 06:26:17;;;;;;;0.90;0.90;;;;;;;18.73;68.06;99950.19;5039299;28;20049;-64
2023/05/26 06:28:45;;;;;;;6.07;2.30;;;;;;;18.82;67.75;99955.97;5032594;28;20049;-64
2023/05/26 06:31:16;;;;;;;7.80;1.08;;;;;;;18.91;67.60;99955.72;5032900;28;20660;-67
2023/05/26 06:33:55;;;;;;;5.23;1.80;;;;;;;18.99;67.32;99951.13;5034089;28;20395;-64
2023/05/26 06:36:25;;;;;;;1.42;1.05;;;;;;;19.12;67.11;99955.03;5033446;28;20136;-65
2023/05/26 06:38:54;;;;;;;1.80;1.35;;;;;;;19.20;66.35;99953.03;5032482;28;20377;-64
2023/05/26 06:41:24;;;;;;;1.20;1.10;;;;;;;19.22;66.30;99952.09;5033300;28;20550;-63
2023/05/26 06:43:55;;;;;;;2.33;1.40;;;;;;;19.44;66.11;99944.53;5036566;28;20510;-63
2023/05/26 06:46:25;;;;;;;2.38;1.85;;;;;;;19.56;65.80;99944.13;5037451;28;20077;-63
2023/05/26 06:48:56;;;;;;;1.20;0.95;;;;;;;19.72;65.54;99952.25;5036139;28;20103;-65
2023/05/26 06:51:36;;;;;;;0.80;0.80;;;;;;;19.77;65.68;99951.19;5037489;28;20049;-63
2023/05/26 06:54:07;;;;;;;0.77;0.75;;;;;;;20.03;65.54;99948.53;5037537;28;20063;-64
2023/05/26 06:56:37;;;;;;;4.93;1.58;;;;;;;20.19;65.35;99948.88;5004033;28;20107;-63
2023/05/26 06:59:06;;;;;;;1.33;1.23;;;;;;;20.40;64.63;99955.03;5036019;28;20049;-67
2023/05/26 07:01:36;;;;;;;;;;;;;;;20.50;64.13;99953.81;5037465;28;20084;-65
2023/05/26 07:04:04;;;;;;;2.20;1.20;;;;;;;20.62;64.07;99953.38;5035956;28;19928;-65
2023/05/26 07:06:33;;;;;;;3.15;2.08;;;;;;;20.82;63.34;99961.25;5036976;28;20045;-63
2023/05/26 07:09:17;;;;;;;1.52;1.42;;;;;;;20.89;62.85;99957.53;5036948;28;20065;-65
2023/05/26 07:11:54;;;;;;;1.20;1.15;;;;;;;20.96;62.20;99950.34;5037267;28;20069;-67
2023/05/26 07:14:46;;;;;;;;;;;;;;;21.06;62.09;99955.16;5037123;28;20096;-65
2023/05/26 07:17:16;;;;;;;1.20;1.00;;;;;;;21.05;62.13;99950.88;5036796;28;19921;-65
2023/05/26 07:19:47;;;;;;;4.68;1.83;;;;;;;21.15;62.20;99949.59;5035908;28;20049;-63
2023/05/26 07:22:16;;;;;;;9.38;2.17;;;;;;;21.26;62.43;99951.75;5036576;28;20051;-66
2023/05/26 07:24:57;;;;;;;0.95;0.95;;;;;;;21.42;62.31;99955.44;5039866;28;20212;-66
2023/05/26 07:27:33;;;;;;;2.17;1.55;;;;;;;21.55;61.82;99953.16;5076559;28;20045;-66
2023/05/26 07:30:03;;;;;;;2.05;1.45;;;;;;;21.64;61.25;99947.63;5076857;28;20094;-65
2023/05/26 07:32:37;;;;;;;2.03;1.73;;;;;;;21.67;61.27;99957.88;5076596;28;20040;-66
2023/05/26 07:35:06;;;;;;;1.42;1.33;;;;;;;21.76;60.69;99957.50;5076732;28;20417;-64
2023/05/26 07:37:35;;;;;;;1.10;0.95;;;;;;;21.77;60.73;99959.19;5072145;28;20096;-67
2023/05/26 07:40:07;;;;;;;1.50;1.10;;;;;;;21.71;60.75;99959.44;5056317;28;20136;-64
2023/05/26 07:42:36;;;;;;;1.55;1.45;;;;;;;21.77;60.88;99954.84;5056333;28;20080;-66
2023/05/26 07:45:06;;;;;;;1.38;1.15;;;;;;;21.97;60.26;99956.63;5055790;28;20045;-65
2023/05/26 07:47:35;;;;;;;1.63;1.23;;;;;;;22.14;59.95;99951.53;5059038;28;20041;-66
2023/05/26 07:50:06;;;;;;;1.38;1.25;;;;;;;22.27;59.49;99963.09;5064785;28;20048;-66
2023/05/26 07:52:35;;;;;;;1.98;1.40;;;;;;;22.32;58.77;99955.94;5076057;28;20033;-66
2023/05/26 07:55:05;;;;;;;2.90;1.55;;;;;;;22.35;58.36;99965.34;5054371;28;20056;-66
2023/05/26 07:57:34;;;;;;;1.27;0.95;;;;;;;22.47;59.21;99962.22;5069849;28;20407;-65
2023/05/26 08:00:05;;;;;;;2.63;1.63;;;;;;;22.59;58.84;99957.31;5070517;28;20037;-67
2023/05/26 08:02:41;;;;;;;1.33;1.10;;;;;;;22.50;58.42;99956.88;5075923;28;20765;-65
2023/05/26 08:05:10;;;;;;;2.00;1.83;;;;;;;22.40;58.53;99956.44;5075560;28;20033;-64
2023/05/26 08:07:38;;;;;;;1.35;1.25;;;;;;;22.44;58.58;99963.19;5076067;28;20045;-65
2023/05/26 08:10:09;;;;;;;1.10;1.00;;;;;;;22.61;58.26;99955.50;5076383;28;20041;-63
2023/05/26 08:12:38;;;;;;;1.10;1.02;;;;;;;22.71;58.11;99961.13;5076133;28;20368;-66
2023/05/26 08:15:14;;;;;;;1.53;1.03;;;;;;;22.75;58.21;99956.66;5075693;28;20041;-64
2023/05/26 08:17:48;;;;;;;2.28;1.48;;;;;;;22.90;58.27;99950.72;5075730;28;20278;-66
2023/05/26 08:20:17;;;;;;;1.33;1.05;;;;;;;22.97;57.72;99954.72;5075537;28;20052;-64
2023/05/26 08:22:46;;;;;;;0.77;0.77;;;;;;;22.88;57.79;99953.41;5075850;28;20029;-64
2023/05/26 08:25:16;;;;;;;1.40;1.10;;;;;;;23.01;57.11;99961.50;5075638;28;20554;-66
2023/05/26 08:27:45;;;;;;;1.25;1.00;;;;;;;23.00;57.51;99962.38;5075432;28;20064;-64
2023/05/26 08:30:14;;;;;;;1.08;0.98;;;;;;;23.18;57.42;99961.50;5075855;28;20071;-64
2023/05/26 08:32:43;;;;;;;0.77;0.77;;;;;;;23.33;57.08;99961.63;5075633;28;20043;-65
2023/05/26 08:35:12;;;;;;;3.92;2.38;;;;;;;23.51;56.26;99962.53;5075616;28;20041;-64
2023/05/26 08:37:41;;;;;;;1.55;1.35;;;;;;;23.50;56.28;99958.22;5075528;28;20044;-65
2023/05/26 08:40:11;;;;;;;1.48;1.20;;;;;;;23.59;55.88;99956.94;5075196;28;20052;-65
2023/05/26 08:42:45;;;;;;;1.70;1.60;;;;;;;23.56;56.06;99957.94;5075327;28;20049;-64
2023/05/26 08:45:14;;;;;;;0.82;0.82;;;;;;;23.73;56.45;99957.94;5075383;28;20045;-64
2023/05/26 08:47:43;;;;;;;0.80;0.80;;;;;;;23.91;56.66;99957.03;5075083;28;20052;-65
2023/05/26 08:50:12;;;;;;;;;;;;;;;23.94;56.03;99959.47;5076037;28;20056;-64
2023/05/26 08:52:44;;;;;;;0.70;0.70;;;;;;;23.90;55.15;99959.69;5075007;28;19928;-64
2023/05/26 08:55:25;;;;;;;1.45;1.27;;;;;;;23.61;54.88;99955.94;5075267;28;20178;-65
2023/05/26 08:57:57;;;;;;;2.00;1.17;;;;;;;23.49;55.07;99961.75;5074812;28;20040;-64
2023/05/26 09:00:29;;;;;;;0.90;0.85;;;;;;;23.50;55.44;99958.22;5074875;28;20049;-66
2023/05/26 09:02:58;;;;;;;1.27;1.15;;;;;;;23.53;55.81;99952.03;5075420;28;20048;-64
2023/05/26 09:05:30;;;;;;;1.33;1.23;;;;;;;23.59;56.73;99957.78;5072446;28;20051;-64
2023/05/26 09:07:58;;;;;;;1.50;1.08;;;;;;;23.74;57.27;99951.81;5074933;28;20440;-64
2023/05/26 09:10:30;;;;;;;0.82;0.77;;;;;;;23.93;56.79;99942.13;5074964;28;20132;-63
2023/05/26 09:13:06;;;;;;;1.25;0.93;;;;;;;24.20;56.88;99952.09;5075118;28;20505;-64
2023/05/26 09:15:35;;;;;;;2.45;1.67;;;;;;;24.35;56.25;99948.69;5074528;28;20041;-65
2023/05/26 09:18:06;;;;;;;1.13;1.02;;;;;;;24.67;56.53;99956.47;5074353;28;20052;-64
2023/05/26 09:20:35;;;;;;;0.65;0.65;;;;;;;24.70;55.07;99950.25;5074427;28;20052;-65
2023/05/26 09:23:04;;;;;;;1.90;1.30;;;;;;;24.56;54.49;99952.78;5074708;28;20117;-66
2023/05/26 09:25:35;;;;;;;0.73;0.73;;;;;;;24.60;54.56;99954.28;5074310;28;20079;-64
2023/05/26 09:28:08;;;;;;;1.60;1.40;;;;;;;24.86;55.21;99945.91;5074266;28;20041;-64
2023/05/26 09:30:38;;;;;;;0.70;0.70;;;;;;;25.05;55.21;99940.53;5074291;28;20049;-64
2023/05/26 09:33:10;;;;;;;0.60;0.60;;;;;;;24.87;55.11;99947.59;5074728;28;20048;-64
2023/05/26 09:35:42;;;;;;;1.10;1.00;;;;;;;25.05;55.39;99941.34;5074395;28;20072;-64
2023/05/26 09:38:12;;;;;;;1.50;1.25;;;;;;;25.18;54.61;99939.75;5074232;28;20462;-64
2023/05/26 09:40:42;;;;;;;1.42;1.15;;;;;;;25.25;53.54;99937.63;5074399;28;20560;-64
2023/05/26 09:43:13;;;;;;;0.70;0.70;;;;;;;25.25;53.19;99943.69;5074230;28;20075;-65
2023/05/26 09:45:42;;;;;;;1.70;1.20;;;;;;;25.52;53.42;99940.47;5073857;28;20083;-64
2023/05/26 09:48:11;;;;;;;1.70;1.25;;;;;;;25.77;54.28;99936.31;5073917;28;20055;-65
2023/05/26 09:50:39;;;;;;;;;;;;;;;25.64;54.26;99934.53;5074276;28;20041;-64
2023/05/26 09:53:10;;;;;;;0.90;0.90;;;;;;;25.29;53.37;99936.50;5074204;28;20429;-64
2023/05/26 09:55:42;;;;;;;1.15;1.05;;;;;;;25.21;53.51;99936.97;5073882;28;20040;-64
2023/05/26 09:58:14;;;;;;;1.17;1.08;;;;;;;25.03;55.18;99931.91;5073905;28;20056;-63
2023/05/26 10:00:44;;;;;;;0.98;0.88;;;;;;;25.07;54.73;99934.28;5074617;28;20052;-64
2023/05/26 10:03:14;;;;;;;0.60;0.60;;;;;;;25.40;54.91;99930.69;5073785;28;20066;-63
2023/05/26 10:05:47;;;;;;;0.73;0.73;;;;;;;25.40;53.72;99930.69;5073719;28;20052;-63
2023/05/26 10:08:19;;;;;;;0.98;0.85;;;;;;;25.54;53.57;99925.53;5073623;28;20044;-64
2023/05/26 10:10:50;;;;;;;1.80;1.08;;;;;;;25.88;53.72;99923.47;5073676;28;20123;-63
2023/05/26 10:13:21;;;;;;;1.42;1.10;;;;;;;25.95;54.49;99923.94;5073671;28;20056;-63
2023/05/26 10:15:50;;;;;;;0.60;0.60;;;;;;;25.80;53.95;99930.06;5073290;28;20059;-64
2023/05/26 10:18:18;;;;;;;0.73;0.73;;;;;;;25.42;53.99;99923.59;5073560;28;20494;-64
2023/05/26 10:20:50;;;;;;;1.00;0.90;;;;;;;25.33;54.05;99914.50;5072763;28;20044;-63
2023/05/26 10:23:25;;;;;;;4.75;2.17;;;;;;;25.56;54.76;99921.03;5073550;28;20075;-64
2023/05/26 10:26:00;;;;;;;0.65;0.65;;;;;;;26.00;55.50;99915.81;5073404;28;20063;-63
2023/05/26 10:28:38;;;;;;;1.58;1.23;;;;;;;26.02;54.60;99914.78;5073437;28;20056;-63
2023/05/26 10:31:07;;;;;;;1.25;1.15;;;;;;;25.74;54.27;99909.53;5073208;28;20052;-65
2023/05/26 10:33:41;;;;;;;1.20;0.73;;;;;;;25.92;53.78;99919.72;5072334;28;20123;-63
2023/05/26 10:36:14;;;;;;;1.52;1.42;;;;;;;26.26;54.63;99913.31;5073484;28;20045;-63
2023/05/26 10:38:46;;;;;;;1.58;0.88;;;;;;;26.45;53.92;99919.09;5073371;28;20048;-64
2023/05/26 10:41:31;;;;;;;2.15;1.20;;;;;;;26.44;52.74;99906.94;5073633;28;20055;-64
2023/05/26 10:44:03;;;;;;;4.65;1.65;;;;;;;26.63;53.05;99904.84;5073558;28;20040;-63
2023/05/26 10:46:40;;;;;;;1.25;1.15;;;;;;;26.67;53.18;99908.13;5073268;28;20052;-64
2023/05/26 10:49:21;;;;;;;0.77;0.77;;;;;;;26.75;52.75;99910.28;5073267;28;20055;-64
2023/05/26 10:51:52;;;;;;;1.48;1.00;;;;;;;26.76;51.98;99911.97;5073517;28;20567;-64
2023/05/26 10:54:24;;;;;;;2.03;1.55;;;;;;;26.63;52.46;99911.03;5073325;28;20080;-65
2023/05/26 10:56:55;;;;;;;0.85;0.85;;;;;;;26.19;51.49;99911.16;5073472;28;20135;-65
2023/05/26 10:59:33;;;;;;;2.20;1.20;;;;;;;25.93;51.35;99904.88;5073057;28;20051;-64
2023/05/26 11:02:04;;;;;;;1.55;1.33;;;;;;;26.31;51.95;99906.03;5073145;28;20140;-64
2023/05/26 11:04:42;;;;;;;0.60;0.60;;;;;;;26.19;51.38;99911.16;5072971;28;20063;-64
2023/05/26 11:07:21;;;;;;;1.52;1.35;;;;;;;25.91;51.37;99909.38;5072923;28;20052;-67
2023/05/26 11:10:02;;;;;;;1.45;1.23;;;;;;;25.71;51.93;99915.78;5073279;28;20051;-66
2023/05/26 11:12:36;;;;;;;1.13;1.05;;;;;;;25.42;52.65;99913.13;5072984;28;20045;-65
2023/05/26 11:15:27;;;;;;;4.50;2.35;;;;;;;25.20;52.98;99903.91;5073262;28;20429;-66
2023/05/26 11:18:01;;;;;;;5.80;2.78;;;;;;;25.03;53.40;99917.09;5072914;28;20129;-65
2023/05/26 11:20:30;;;;;;;4.57;2.60;;;;;;;24.82;53.93;99918.28;5073021;28;20106;-65
2023/05/26 11:23:00;;;;;;;3.75;2.13;;;;;;;24.67;54.37;99920.88;5072976;28;20128;-67
2023/05/26 11:25:29;;;;;;;1.20;1.10;;;;;;;24.55;54.89;99920.59;5072860;28;20132;-66
2023/05/26 11:27:58;;;;;;;1.30;1.10;;;;;;;24.46;54.88;99915.88;5073284;28;20052;-64
2023/05/26 11:30:34;;;;;;;1.48;0.90;;;;;;;24.47;55.19;99908.91;5075650;28;20064;-65
2023/05/26 11:33:12;;;;;;;0.93;0.90;;;;;;;24.49;55.19;99910.50;5076623;28;20487;-66
2023/05/26 11:35:41;;;;;;;2.28;0.93;;;;;;;24.65;54.90;99911.34;5076667;28;20049;-65
2023/05/26 11:38:10;;;;;;;1.80;1.15;;;;;;;24.99;53.86;99904.28;5077387;28;20567;-65
2023/05/26 11:40:39;;;;;;;2.58;1.80;;;;;;;25.22;52.46;99896.81;5076728;28;20069;-66
2023/05/26 11:43:08;;;;;;;3.28;2.38;;;;;;;25.26;51.89;99895.75;5075303;28;20132;-66
2023/05/26 11:45:36;;;;;;;2.55;2.00;;;;;;;25.39;51.69;99902.88;5076924;28;20131;-67
2023/05/26 11:48:07;;;;;;;1.23;1.13;;;;;;;25.64;51.24;99897.91;5076142;28;20040;-66
2023/05/26 11:50:35;;;;;;;1.08;0.88;;;;;;;25.55;50.01;99898.47;5076227;28;20478;-65
2023/05/26 11:53:04;;;;;;;5.38;2.05;;;;;;;25.59;50.26;99897.34;5076380;28;20434;-65
2023/05/26 11:55:33;;;;;;;1.13;1.02;;;;;;;25.77;50.02;99888.44;5076342;28;20523;-65